createdAt,value
2018-06-02T00:00:00.758Z,19.70
2018-06-02T00:02:27.259Z,19.60
2018-06-02T00:04:53.595Z,19.60
2018-06-02T00:07:19.930Z,19.60
2018-06-02T00:09:46.327Z,19.60
2018-06-02T00:12:13.565Z,19.60
2018-06-02T00:14:39.940Z,19.50
2018-06-02T00:17:06.286Z,19.60
2018-06-02T00:19:32.701Z,19.60
2018-06-02T00:21:59.814Z,19.50
2018-06-02T00:24:26.263Z,19.50
2018-06-02T00:26:53.423Z,19.50
2018-06-02T00:29:19.856Z,19.50
2018-06-02T00:31:46.215Z,19.50
2018-06-02T00:34:13.255Z,19.50
2018-06-02T00:36:39.602Z,19.50
2018-06-02T00:39:05.886Z,19.50
2018-06-02T00:41:33.071Z,19.40
2018-06-02T00:44:00.101Z,19.40
2018-06-02T00:46:27.263Z,19.40
2018-06-02T00:48:53.609Z,19.40
2018-06-02T00:51:20.699Z,19.40
2018-06-02T00:53:47.052Z,19.30
2018-06-02T00:56:14.137Z,19.30
2018-06-02T00:58:40.501Z,19.30
2018-06-02T01:01:08.207Z,19.40
2018-06-02T01:03:36.132Z,19.30
2018-06-02T01:06:02.357Z,19.30
2018-06-02T01:08:28.615Z,19.30
2018-06-02T01:10:54.873Z,19.30
2018-06-02T01:13:21.893Z,19.30
2018-06-02T01:15:48.129Z,19.20
2018-06-02T01:18:14.551Z,19.30
2018-06-02T01:20:40.905Z,19.30
2018-06-02T01:23:08.255Z,19.20
2018-06-02T01:25:34.721Z,19.20
2018-06-02T01:28:02.303Z,19.20
2018-06-02T01:30:29.477Z,19.20
2018-06-02T01:32:55.789Z,19.20
2018-06-02T01:35:22.950Z,19.20
2018-06-02T01:37:49.377Z,19.20
2018-06-02T01:40:16.401Z,19.20
2018-06-02T01:42:43.511Z,19.10
2018-06-02T01:45:09.841Z,19.10
2018-06-02T01:47:36.343Z,19.10
2018-06-02T01:50:02.718Z,19.10
2018-06-02T01:52:29.832Z,19.10
2018-06-02T01:54:56.150Z,19.10
2018-06-02T01:57:23.317Z,19.10
2018-06-02T01:59:50.776Z,19.00
2018-06-02T02:02:18.052Z,19.10
2018-06-02T02:04:44.841Z,19.10
2018-06-02T02:07:12.042Z,19.00
2018-06-02T02:09:38.370Z,19.00
2018-06-02T02:12:04.686Z,19.00
2018-06-02T02:14:30.997Z,19.00
2018-06-02T02:16:59.339Z,19.00
2018-06-02T02:19:25.665Z,19.00
2018-06-02T02:21:53.073Z,19.00
2018-06-02T02:24:19.395Z,19.00
2018-06-02T02:26:45.869Z,19.00
2018-06-02T02:29:12.780Z,19.00
2018-06-02T02:31:39.834Z,18.90
2018-06-02T02:34:06.905Z,18.90
2018-06-02T02:36:33.385Z,18.90
2018-06-02T02:38:59.734Z,18.90
2018-06-02T02:41:26.032Z,18.90
2018-06-02T02:43:52.454Z,18.90
2018-06-02T02:46:19.796Z,18.90
2018-06-02T02:48:46.353Z,18.90
2018-06-02T02:51:12.698Z,18.90
2018-06-02T02:53:38.974Z,18.90
2018-06-02T02:56:06.255Z,18.90
2018-06-02T02:58:32.563Z,18.80
2018-06-02T03:00:58.850Z,18.90
2018-06-02T03:03:25.378Z,18.80
2018-06-02T03:05:51.698Z,18.80
2018-06-02T03:08:18.474Z,18.80
2018-06-02T03:10:45.380Z,18.80
2018-06-02T03:13:12.416Z,18.80
2018-06-02T03:15:38.717Z,18.80
2018-06-02T03:18:05.790Z,18.80
2018-06-02T03:20:32.153Z,18.80
2018-06-02T03:22:58.482Z,18.80
2018-06-02T03:25:24.864Z,18.80
2018-06-02T03:27:51.182Z,18.80
2018-06-02T03:30:18.299Z,18.80
2018-06-02T03:32:45.480Z,18.70
2018-06-02T03:35:11.877Z,18.80
2018-06-02T03:37:38.269Z,18.70
2018-06-02T03:40:04.548Z,18.70
2018-06-02T03:42:30.848Z,18.70
2018-06-02T03:44:59.119Z,18.70
2018-06-02T03:47:26.217Z,18.70
2018-06-02T03:49:52.936Z,18.70
2018-06-02T03:52:20.028Z,18.70
2018-06-02T03:54:46.394Z,18.70
2018-06-02T03:57:12.762Z,18.70
2018-06-02T03:59:39.135Z,18.70
2018-06-02T04:02:05.425Z,18.70
2018-06-02T04:04:32.491Z,18.70
2018-06-02T04:06:58.818Z,18.70
2018-06-02T04:09:25.328Z,18.70
2018-06-02T04:11:51.671Z,18.70
2018-06-02T04:14:18.700Z,18.70
2018-06-02T04:16:46.586Z,18.60
2018-06-02T04:19:12.893Z,18.60
2018-06-02T04:21:39.211Z,18.60
2018-06-02T04:24:05.484Z,18.60
2018-06-02T04:26:31.777Z,18.60
2018-06-02T04:28:58.884Z,18.60
2018-06-02T04:31:25.285Z,18.60
2018-06-02T04:33:52.364Z,18.60
2018-06-02T04:36:18.731Z,18.60
2018-06-02T04:38:45.187Z,18.60
2018-06-02T04:41:12.357Z,18.60
2018-06-02T04:43:38.988Z,18.60
2018-06-02T04:46:06.381Z,18.60
2018-06-02T04:48:32.688Z,18.60
2018-06-02T04:50:58.988Z,18.60
2018-06-02T04:53:25.416Z,18.60
2018-06-02T04:55:52.264Z,18.60
2018-06-02T04:58:18.780Z,18.60
2018-06-02T05:00:45.292Z,18.60
2018-06-02T05:03:11.684Z,18.60
2018-06-02T05:05:38.002Z,18.60
2018-06-02T05:08:04.695Z,18.60
2018-06-02T05:10:31.298Z,18.60
2018-06-02T05:12:57.650Z,18.50
2018-06-02T05:15:24.076Z,18.50
2018-06-02T05:17:52.058Z,18.50
2018-06-02T05:20:18.436Z,18.50
2018-06-02T05:22:44.894Z,18.50
2018-06-02T05:25:11.289Z,18.60
2018-06-02T05:27:37.828Z,18.50
2018-06-02T05:30:05.483Z,18.50
2018-06-02T05:32:31.906Z,18.50
2018-06-02T05:34:59.084Z,18.50
2018-06-02T05:37:27.034Z,18.50
2018-06-02T05:39:53.770Z,18.50
2018-06-02T05:42:21.628Z,18.50
2018-06-02T05:44:48.082Z,18.50
2018-06-02T05:47:15.162Z,18.50
2018-06-02T05:49:42.016Z,18.50
2018-06-02T05:52:08.510Z,18.50
2018-06-02T05:54:34.972Z,18.50
2018-06-02T05:57:02.458Z,18.50
2018-06-02T05:59:28.776Z,18.50
2018-06-02T06:01:56.828Z,18.50
2018-06-02T06:04:23.189Z,18.50
2018-06-02T06:06:50.347Z,18.50
2018-06-02T06:09:17.659Z,18.50
2018-06-02T06:11:44.084Z,18.50
2018-06-02T06:14:10.555Z,18.50
2018-06-02T06:16:37.624Z,18.50
2018-06-02T06:19:04.207Z,18.50
2018-06-02T06:21:30.597Z,18.50
2018-06-02T06:23:57.798Z,18.50
2018-06-02T06:26:24.227Z,18.50
2018-06-02T06:28:51.259Z,18.50
2018-06-02T06:31:17.714Z,18.50
2018-06-02T06:33:44.052Z,18.50
2018-06-02T06:36:10.350Z,18.50
2018-06-02T06:38:37.528Z,18.50
2018-06-02T06:41:03.839Z,18.50
2018-06-02T06:43:30.914Z,18.50
2018-06-02T06:45:57.340Z,18.50
2018-06-02T06:48:23.667Z,18.60
2018-06-02T06:50:50.736Z,18.60
2018-06-02T06:53:17.138Z,18.50
2018-06-02T06:55:44.414Z,18.60
2018-06-02T06:58:11.277Z,18.50
2018-06-02T07:00:37.783Z,18.60
2018-06-02T07:03:04.824Z,18.60
2018-06-02T07:08:08.127Z,18.60
2018-06-02T07:10:35.534Z,18.60
2018-06-02T07:13:02.670Z,18.60
2018-06-02T07:15:29.641Z,18.60
2018-06-02T07:17:55.951Z,18.60
2018-06-02T07:20:23.052Z,18.60
2018-06-02T07:22:49.356Z,18.60
2018-06-02T07:25:15.642Z,18.60
2018-06-02T07:27:42.244Z,18.60
2018-06-02T07:30:08.618Z,18.60
2018-06-02T07:32:35.065Z,18.60
2018-06-02T07:35:02.118Z,18.60
2018-06-02T07:37:29.198Z,18.70
2018-06-02T07:39:55.558Z,18.60
2018-06-02T07:42:21.817Z,18.70
2018-06-02T07:44:48.226Z,18.70
2018-06-02T07:47:15.328Z,18.70
2018-06-02T07:49:41.688Z,18.70
2018-06-02T07:52:08.796Z,18.70
2018-06-02T07:54:35.971Z,18.70
2018-06-02T07:57:02.399Z,18.70
2018-06-02T07:59:28.709Z,18.70
2018-06-02T08:01:55.887Z,18.70
2018-06-02T08:04:22.200Z,18.70
2018-06-02T08:06:48.589Z,18.70
2018-06-02T08:09:14.977Z,18.70
2018-06-02T08:11:41.277Z,18.70
2018-06-02T08:14:09.170Z,18.70
2018-06-02T08:16:35.985Z,18.70
2018-06-02T08:19:02.759Z,18.80
2018-06-02T08:21:29.129Z,18.80
2018-06-02T08:23:55.430Z,18.80
2018-06-02T08:26:21.829Z,18.80
2018-06-02T08:28:48.907Z,18.80
2018-06-02T08:31:15.209Z,18.80
2018-06-02T08:33:42.282Z,18.80
2018-06-02T08:36:08.616Z,18.80
2018-06-02T08:38:35.880Z,18.80
2018-06-02T08:41:02.269Z,18.80
2018-06-02T08:43:28.702Z,18.80
2018-06-02T08:45:55.108Z,18.80
2018-06-02T08:48:21.445Z,18.80
2018-06-02T08:50:47.893Z,18.80
2018-06-02T08:53:14.256Z,18.90
2018-06-02T08:55:41.315Z,18.90
2018-06-02T08:58:07.687Z,18.80
2018-06-02T09:00:34.037Z,18.90
2018-06-02T09:03:00.424Z,18.90
2018-06-02T09:05:28.768Z,18.90
2018-06-02T09:07:55.140Z,18.90
2018-06-02T09:10:21.588Z,18.90
2018-06-02T09:12:48.935Z,18.90
2018-06-02T09:15:15.369Z,18.90
2018-06-02T09:17:41.712Z,18.90
2018-06-02T09:20:08.095Z,18.90
2018-06-02T09:22:35.233Z,18.90
2018-06-02T09:25:01.590Z,18.90
2018-06-02T09:27:29.534Z,19.00
2018-06-02T09:29:55.898Z,19.00
2018-06-02T09:32:22.524Z,19.00
2018-06-02T09:34:48.859Z,19.00
2018-06-02T09:37:16.393Z,19.00
2018-06-02T09:39:43.622Z,19.10
2018-06-02T09:42:09.953Z,19.00
2018-06-02T09:44:36.438Z,19.00
2018-06-02T09:47:02.741Z,19.10
2018-06-02T09:49:29.035Z,19.10
2018-06-02T09:51:55.360Z,19.10
2018-06-02T09:54:22.626Z,19.10
2018-06-02T09:56:49.036Z,19.10
2018-06-02T09:59:15.500Z,19.20
2018-06-02T10:01:41.946Z,19.20
2018-06-02T10:04:09.403Z,19.20
2018-06-02T10:06:35.948Z,19.20
2018-06-02T10:09:02.569Z,19.20
2018-06-02T10:11:29.806Z,19.30
2018-06-02T10:13:56.249Z,19.30
2018-06-02T10:16:22.709Z,19.30
2018-06-02T10:18:49.123Z,19.40
2018-06-02T10:21:15.447Z,19.40
2018-06-02T10:23:42.511Z,19.50
2018-06-02T10:26:09.041Z,19.40
2018-06-02T10:28:35.357Z,19.50
2018-06-02T10:31:02.393Z,19.60
2018-06-02T10:33:29.529Z,19.60
2018-06-02T10:35:55.873Z,19.60
2018-06-02T10:38:22.953Z,19.70
2018-06-02T10:40:49.285Z,19.60
2018-06-02T10:43:15.683Z,19.70
2018-06-02T10:45:42.940Z,19.70
2018-06-02T10:48:09.926Z,19.80
2018-06-02T10:50:36.207Z,19.80
2018-06-02T10:53:02.694Z,19.90
2018-06-02T10:55:32.736Z,19.90
2018-06-02T10:58:00.889Z,19.90
2018-06-02T11:00:27.923Z,20.00
2018-06-02T11:02:54.296Z,20.00
2018-06-02T11:05:20.650Z,20.00
2018-06-02T11:07:47.007Z,20.10
2018-06-02T11:10:13.379Z,20.10
2018-06-02T11:12:39.716Z,20.10
2018-06-02T11:15:07.064Z,20.20
2018-06-02T11:17:33.407Z,20.20
2018-06-02T11:19:59.934Z,20.20
2018-06-02T11:22:26.314Z,20.30
2018-06-02T11:24:52.663Z,20.30
2018-06-02T11:27:18.994Z,20.30
2018-06-02T11:29:46.131Z,20.30
2018-06-02T11:32:13.435Z,20.40
2018-06-02T11:34:39.754Z,20.40
2018-06-02T11:37:06.922Z,20.40
2018-06-02T11:39:33.241Z,20.40
2018-06-02T11:41:59.561Z,20.50
2018-06-02T11:44:26.640Z,20.50
2018-06-02T11:46:52.930Z,20.50
2018-06-02T11:49:19.229Z,20.50
2018-06-02T11:51:46.241Z,20.50
2018-06-02T11:54:12.795Z,20.50
2018-06-02T11:56:39.320Z,20.60
2018-06-02T11:59:05.670Z,20.60
2018-06-02T12:01:33.751Z,20.60
2018-06-02T12:04:00.031Z,20.60
2018-06-02T12:06:27.137Z,20.70
2018-06-02T12:08:53.505Z,20.70
2018-06-02T12:11:20.911Z,20.70
2018-06-02T12:13:47.224Z,20.70
2018-06-02T12:16:16.533Z,20.80
2018-06-02T12:18:42.916Z,20.70
2018-06-02T12:21:09.890Z,20.80
2018-06-02T12:23:37.301Z,20.80
2018-06-02T12:26:04.603Z,20.80
2018-06-02T12:28:31.769Z,20.80
2018-06-02T12:30:58.130Z,20.80
2018-06-02T12:33:25.996Z,20.90
2018-06-02T12:35:52.321Z,20.90
2018-06-02T12:38:18.748Z,20.90
2018-06-02T12:40:45.707Z,20.90
2018-06-02T12:43:12.243Z,20.90
2018-06-02T12:45:38.629Z,20.90
2018-06-02T12:48:05.102Z,20.90
2018-06-02T12:50:31.505Z,21.00
2018-06-02T12:52:58.592Z,21.00
2018-06-02T12:55:24.895Z,21.00
2018-06-02T12:57:51.365Z,21.00
2018-06-02T13:00:17.742Z,21.00
2018-06-02T13:02:44.421Z,21.00
2018-06-02T13:05:11.580Z,21.10
2018-06-02T13:07:37.922Z,21.10
2018-06-02T13:10:04.358Z,21.10
2018-06-02T13:12:30.731Z,21.10
2018-06-02T13:14:57.877Z,21.10
2018-06-02T13:17:24.145Z,21.20
2018-06-02T13:19:51.270Z,21.20
2018-06-02T13:22:17.652Z,21.20
2018-06-02T13:24:43.964Z,21.20
2018-06-02T13:27:10.358Z,21.20
2018-06-02T13:29:36.670Z,21.30
2018-06-02T13:32:02.962Z,21.30
2018-06-02T13:34:30.150Z,21.30
2018-06-02T13:36:56.552Z,21.30
2018-06-02T13:39:22.938Z,21.30
2018-06-02T13:41:52.132Z,21.30
2018-06-02T13:44:18.478Z,21.30
2018-06-02T13:46:44.810Z,21.40
2018-06-02T13:49:11.997Z,21.40
2018-06-02T13:51:38.385Z,21.40
2018-06-02T13:54:04.905Z,21.40
2018-06-02T13:56:31.233Z,21.40
2018-06-02T13:58:57.654Z,21.50
2018-06-02T14:01:24.986Z,21.50
2018-06-02T14:03:51.497Z,21.50
2018-06-02T14:06:17.805Z,21.50
2018-06-02T14:08:44.122Z,21.50
2018-06-02T14:11:10.401Z,21.60
2018-06-02T14:13:36.775Z,21.60
2018-06-02T14:16:03.120Z,21.60
2018-06-02T14:18:29.526Z,21.60
2018-06-02T14:20:55.989Z,21.60
2018-06-02T14:23:22.341Z,21.60
2018-06-02T14:25:50.161Z,21.60
2018-06-02T14:28:16.522Z,21.60
2018-06-02T14:30:42.870Z,21.70
2018-06-02T14:33:09.121Z,21.70
2018-06-02T14:35:35.427Z,21.70
2018-06-02T14:38:01.772Z,21.70
2018-06-02T14:40:28.219Z,21.70
2018-06-02T14:42:54.519Z,21.80
2018-06-02T14:45:20.943Z,21.80
2018-06-02T14:47:50.826Z,21.80
2018-06-02T14:50:17.242Z,21.80
2018-06-02T14:52:43.618Z,21.80
2018-06-02T14:55:10.765Z,21.80
2018-06-02T14:57:37.121Z,21.80
2018-06-02T15:00:03.551Z,21.80
2018-06-02T15:02:30.544Z,21.80
2018-06-02T15:04:57.685Z,21.90
2018-06-02T15:07:25.034Z,21.90
2018-06-02T15:09:51.351Z,21.90
2018-06-02T15:12:17.676Z,21.90
2018-06-02T15:14:44.005Z,21.90
2018-06-02T15:17:10.386Z,22.00
2018-06-02T15:19:37.486Z,22.00
2018-06-02T15:22:03.794Z,22.00
2018-06-02T15:24:30.860Z,22.00
2018-06-02T15:26:57.240Z,22.00
2018-06-02T15:29:23.575Z,22.10
2018-06-02T15:31:49.888Z,22.10
2018-06-02T15:34:17.035Z,22.10
2018-06-02T15:36:43.416Z,22.10
2018-06-02T15:39:09.779Z,22.10
2018-06-02T15:41:36.133Z,22.10
2018-06-02T15:44:02.471Z,22.10
2018-06-02T15:46:29.768Z,22.20
2018-06-02T15:48:56.093Z,22.20
2018-06-02T15:51:22.409Z,22.20
2018-06-02T15:53:49.196Z,22.20
2018-06-02T15:56:15.569Z,22.20
2018-06-02T15:58:43.333Z,22.20
2018-06-02T16:01:09.689Z,22.20
2018-06-02T16:03:36.789Z,22.30
2018-06-02T16:06:03.189Z,22.20
2018-06-02T16:08:29.543Z,22.20
2018-06-02T16:10:56.061Z,22.30
2018-06-02T16:13:23.139Z,22.30
2018-06-02T16:15:50.261Z,22.30
2018-06-02T16:18:18.571Z,22.30
2018-06-02T16:20:45.654Z,22.30
2018-06-02T16:23:11.974Z,22.30
2018-06-02T16:25:38.865Z,22.30
2018-06-02T16:28:05.899Z,22.30
2018-06-02T16:30:32.168Z,22.30
2018-06-02T16:32:59.228Z,22.30
2018-06-02T16:35:26.599Z,22.30
2018-06-02T16:37:53.001Z,22.30
2018-06-02T16:40:20.386Z,22.30
2018-06-02T16:42:46.818Z,22.30
2018-06-02T16:45:13.204Z,22.30
2018-06-02T16:47:39.570Z,22.30
2018-06-02T16:50:05.855Z,22.30
2018-06-02T16:52:32.136Z,22.30
2018-06-02T16:54:59.231Z,22.30
2018-06-02T16:57:25.568Z,22.30
2018-06-02T16:59:52.065Z,22.30
2018-06-02T17:02:18.412Z,22.30
2018-06-02T17:04:44.845Z,22.30
2018-06-02T17:07:11.174Z,22.30
2018-06-02T17:09:37.517Z,22.30
2018-06-02T17:12:03.873Z,22.30
2018-06-02T17:14:30.209Z,22.30
2018-06-02T17:16:56.497Z,22.30
2018-06-02T17:19:25.738Z,22.30
2018-06-02T17:21:52.885Z,22.20
2018-06-02T17:24:19.302Z,22.20
2018-06-02T17:26:45.864Z,22.20
2018-06-02T17:29:12.973Z,22.20
2018-06-02T17:31:40.796Z,22.20
2018-06-02T17:34:07.172Z,22.20
2018-06-02T17:36:33.627Z,22.20
2018-06-02T17:39:01.048Z,22.20
2018-06-02T17:41:28.117Z,22.10
2018-06-02T17:43:54.741Z,22.10
2018-06-02T17:46:21.805Z,22.10
2018-06-02T17:48:48.133Z,22.10
2018-06-02T17:51:14.629Z,22.10
2018-06-02T17:53:41.093Z,22.10
2018-06-02T17:56:07.468Z,22.10
2018-06-02T17:58:33.777Z,22.10
2018-06-02T18:01:00.111Z,22.10
2018-06-02T18:03:26.542Z,22.10
2018-06-02T18:05:52.981Z,22.10
2018-06-02T18:08:20.228Z,22.10
2018-06-02T18:10:47.389Z,22.10
2018-06-02T18:13:13.821Z,22.10
2018-06-02T18:15:40.253Z,22.10
2018-06-02T18:18:06.757Z,22.10
2018-06-02T18:20:33.168Z,22.10
2018-06-02T18:22:59.432Z,22.10
2018-06-02T18:25:26.478Z,22.10
2018-06-02T18:27:52.842Z,22.00
2018-06-02T18:30:19.114Z,22.10
2018-06-02T18:32:45.473Z,22.10
2018-06-02T18:35:12.550Z,22.10
2018-06-02T18:37:39.614Z,22.10
2018-06-02T18:40:05.935Z,22.00
2018-06-02T18:42:32.385Z,22.10
2018-06-02T18:44:58.689Z,22.00
2018-06-02T18:47:24.961Z,22.00
2018-06-02T18:49:52.218Z,22.00
2018-06-02T18:52:18.624Z,22.00
2018-06-02T18:54:45.002Z,22.00
2018-06-02T18:57:11.311Z,22.00
2018-06-02T18:59:37.985Z,22.00
2018-06-02T19:02:05.040Z,22.00
2018-06-02T19:04:32.189Z,22.00
2018-06-02T19:06:59.333Z,22.00
2018-06-02T19:09:25.730Z,22.00
2018-06-02T19:11:52.011Z,22.00
2018-06-02T19:14:19.078Z,21.90
2018-06-02T19:16:47.156Z,21.90
2018-06-02T19:19:13.581Z,21.90
2018-06-02T19:21:40.333Z,21.90
2018-06-02T19:24:07.539Z,21.90
2018-06-02T19:26:33.987Z,21.90
2018-06-02T19:29:01.041Z,21.90
2018-06-02T19:31:27.370Z,21.90
2018-06-02T19:33:54.408Z,21.90
2018-06-02T19:36:20.806Z,21.90
2018-06-02T19:38:47.238Z,21.90
2018-06-02T19:41:14.370Z,21.80
2018-06-02T19:43:41.413Z,21.80
2018-06-02T19:46:09.054Z,21.80
2018-06-02T19:48:36.107Z,21.80
2018-06-02T19:51:03.200Z,21.80
2018-06-02T19:53:29.633Z,21.80
2018-06-02T19:55:55.965Z,21.80
2018-06-02T19:58:22.257Z,21.80
2018-06-02T20:00:48.581Z,21.80
2018-06-02T20:03:15.242Z,21.70
2018-06-02T20:05:41.600Z,21.70
2018-06-02T20:08:07.941Z,21.70
2018-06-02T20:10:34.337Z,21.70
2018-06-02T20:13:00.662Z,21.70
2018-06-02T20:15:27.043Z,21.70
2018-06-02T20:17:53.473Z,21.60
2018-06-02T20:20:19.993Z,21.60
2018-06-02T20:22:46.324Z,21.60
2018-06-02T20:25:12.708Z,21.60
2018-06-02T20:27:40.522Z,21.60
2018-06-02T20:30:07.921Z,21.50
2018-06-02T20:32:35.573Z,21.50
2018-06-02T20:35:02.841Z,21.50
2018-06-02T20:37:29.320Z,21.50
2018-06-02T20:39:55.595Z,21.50
2018-06-02T20:42:22.848Z,21.40
2018-06-02T20:44:50.355Z,21.40
2018-06-02T20:47:16.720Z,21.40
2018-06-02T20:49:43.106Z,21.40
2018-06-02T20:52:09.606Z,21.30
2018-06-02T20:54:35.923Z,21.30
2018-06-02T20:57:03.023Z,21.30
2018-06-02T20:59:29.346Z,21.30
2018-06-02T21:01:55.632Z,21.30
2018-06-02T21:04:21.991Z,21.20
2018-06-02T21:06:49.076Z,21.20
2018-06-02T21:09:15.570Z,21.20
2018-06-02T21:11:42.010Z,21.20
2018-06-02T21:14:08.441Z,21.20
2018-06-02T21:16:34.896Z,21.10
2018-06-02T21:19:01.246Z,21.10
2018-06-02T21:21:27.641Z,21.10
2018-06-02T21:23:53.951Z,21.00
2018-06-02T21:26:21.157Z,21.00
2018-06-02T21:28:47.599Z,21.00
2018-06-02T21:31:14.071Z,21.00
2018-06-02T21:33:40.459Z,20.90
2018-06-02T21:36:06.883Z,20.90
2018-06-02T21:38:33.236Z,20.90
2018-06-02T21:40:59.593Z,20.90
2018-06-02T21:43:25.953Z,20.90
2018-06-02T21:45:53.122Z,20.80
2018-06-02T21:48:19.508Z,20.80
2018-06-02T21:50:45.929Z,20.80
2018-06-02T21:53:13.046Z,20.70
2018-06-02T21:55:39.403Z,20.70
2018-06-02T21:58:06.519Z,20.70
2018-06-02T22:00:32.894Z,20.70
2018-06-02T22:02:59.235Z,20.70
2018-06-02T22:05:25.709Z,20.60
2018-06-02T22:07:52.007Z,20.60
2018-06-02T22:10:18.337Z,20.50
2018-06-02T22:12:45.118Z,20.50
2018-06-02T22:15:11.507Z,20.50
2018-06-02T22:17:37.903Z,20.50
2018-06-02T22:20:04.333Z,20.50
2018-06-02T22:22:31.440Z,20.40
2018-06-02T22:24:57.738Z,20.40
2018-06-02T22:27:24.075Z,20.40
2018-06-02T22:29:50.371Z,20.40
2018-06-02T22:32:17.529Z,20.30
2018-06-02T22:34:43.841Z,20.30
2018-06-02T22:37:10.140Z,20.30
2018-06-02T22:39:36.531Z,20.20
2018-06-02T22:42:03.171Z,20.20
2018-06-02T22:44:29.520Z,20.20
2018-06-02T22:46:56.632Z,20.20
2018-06-02T22:49:22.926Z,20.10
2018-06-02T22:51:49.268Z,20.10
2018-06-02T22:54:15.729Z,20.10
2018-06-02T22:56:42.786Z,20.00
2018-06-02T22:59:09.793Z,20.00
2018-06-02T23:01:37.222Z,20.00
2018-06-02T23:04:03.515Z,20.00
2018-06-02T23:06:29.846Z,19.90
2018-06-02T23:08:56.162Z,19.90
2018-06-02T23:11:22.430Z,19.90
2018-06-02T23:13:48.712Z,19.90
2018-06-02T23:16:15.014Z,19.90
2018-06-02T23:18:41.323Z,19.80
2018-06-02T23:21:08.869Z,19.80
2018-06-02T23:23:35.531Z,19.80
2018-06-02T23:26:01.823Z,19.70
2018-06-02T23:28:29.646Z,19.70
2018-06-02T23:30:55.925Z,19.70
2018-06-02T23:33:22.249Z,19.70
2018-06-02T23:35:48.550Z,19.60
2018-06-02T23:38:16.268Z,19.60
2018-06-02T23:40:42.651Z,19.60
2018-06-02T23:43:08.918Z,19.60
2018-06-02T23:45:35.206Z,19.50
2018-06-02T23:48:01.556Z,19.50
2018-06-02T23:50:27.908Z,19.50
2018-06-02T23:52:55.117Z,19.40
2018-06-02T23:55:21.544Z,19.40
2018-06-02T23:57:47.902Z,19.40
